Time;durP1;ratioP1;P1;durP2;ratioP2;P2;SDS_P1;SDS_P2;PMS_P1;PMS_P2;Temp;Humidity;BMP_temperature;BMP_pressure;BME280_temperature;BME280_humidity;BME280_pressure;Samples;Min_cycle;Max_cycle;Signal;HPM_P1;HPM_P2
2021/07/11 00:01:50;;;;;;;3.38;2.90;;;18.50;91.20;;;18.85;69.72;97621.66;5044747;28;20056;-45
2021/07/11 00:04:18;;;;;;;3.30;2.88;;;18.50;91.30;;;18.85;69.66;97626.22;5043656;28;20067;-43
2021/07/11 00:06:46;;;;;;;3.53;3.13;;;18.50;91.20;;;18.86;69.67;97631.41;5046149;28;20053;-43
2021/07/11 00:09:14;;;;;;;3.42;2.78;;;18.60;91.10;;;18.86;69.78;97633.25;5045435;28;20063;-43
2021/07/11 00:11:43;;;;;;;4.00;3.20;;;18.60;91.30;;;18.84;69.87;97630.81;5044743;28;20372;-44
2021/07/11 00:14:10;;;;;;;3.65;3.00;;;18.50;91.30;;;18.84;69.83;97630.81;5045236;28;20061;-43
2021/07/11 00:16:38;;;;;;;3.63;2.47;;;18.50;91.50;;;18.83;69.77;97631.81;5046126;28;20051;-43
2021/07/11 00:19:06;;;;;;;3.50;2.90;;;18.50;91.30;;;18.81;69.83;97628.50;5044641;28;20258;-44
2021/07/11 00:21:34;;;;;;;5.07;3.08;;;18.40;91.10;;;18.77;69.84;97624.56;5027386;28;20372;-45
2021/07/11 00:24:03;;;;;;;3.72;3.30;;;18.40;91.30;;;18.74;69.68;97626.84;5045556;28;20059;-45
2021/07/11 00:26:31;;;;;;;4.07;2.90;;;18.40;91.30;;;18.69;69.69;97616.72;5046081;28;20274;-45
2021/07/11 00:28:59;;;;;;;4.28;3.30;;;18.30;91.40;;;18.69;69.69;97614.03;5045693;28;20053;-44
2021/07/11 00:31:26;;;;;;;3.55;2.25;;;18.30;91.30;;;18.64;69.45;97611.13;5046210;28;20608;-44
2021/07/11 00:33:54;;;;;;;2.72;2.30;;;18.20;91.10;;;18.62;69.63;97611.34;5045784;28;20041;-46
2021/07/11 00:36:22;;;;;;;2.83;2.25;;;18.20;91.10;;;18.63;69.50;97617.56;5043775;28;20241;-44
2021/07/11 00:38:51;;;;;;;2.83;2.50;;;18.30;90.90;;;18.64;69.48;97624.63;5044268;28;20048;-44
2021/07/11 00:41:22;;;;;;;2.50;2.28;;;18.30;90.60;;;18.64;69.36;97621.91;5010217;28;20057;-43
2021/07/11 00:43:52;;;;;;;4.90;2.78;;;18.30;90.60;;;18.61;69.32;97620.47;5043971;28;20087;-45
2021/07/11 00:46:22;;;;;;;5.00;2.85;;;18.20;90.40;;;18.58;69.11;97625.47;5027442;28;20048;-43
2021/07/11 00:48:51;;;;;;;4.35;2.58;;;18.10;90.20;;;18.53;68.86;97628.78;5044853;28;20048;-45
2021/07/11 00:51:21;;;;;;;3.03;2.50;;;18.10;90.20;;;18.47;68.82;97625.06;5011080;28;20049;-44
2021/07/11 00:53:53;;;;;;;4.07;2.40;;;18.10;89.70;;;18.45;68.77;97629.84;5027709;28;20071;-43
2021/07/11 00:56:26;;;;;;;2.55;2.15;;;18.10;89.30;;;18.44;68.74;97624.69;5028108;28;20056;-43
2021/07/11 00:58:57;;;;;;;2.47;2.28;;;18.10;89.30;;;18.41;68.37;97625.91;5027766;28;20057;-43
2021/07/11 01:01:57;;;;;;;4.88;2.30;;;18.10;89.20;;;18.37;68.72;97619.31;5010376;28;20395;-45
2021/07/11 01:04:54;;;;;;;2.95;2.22;;;18.00;89.10;;;18.35;68.64;97626.78;5045007;28;20055;-43
2021/07/11 01:07:33;;;;;;;4.40;2.70;;;18.00;88.90;;;18.35;68.37;97634.03;5042441;28;20064;-44
2021/07/11 01:10:23;;;;;;;2.80;2.35;;;18.00;89.20;;;18.34;68.61;97626.97;5042739;28;20057;-44
2021/07/11 01:12:55;;;;;;;4.22;2.30;;;18.00;89.00;;;18.35;68.54;97617.88;5047099;28;20067;-43
2021/07/11 01:15:24;;;;;;;3.15;2.53;;;17.90;89.10;;;18.30;68.39;97629.28;5045149;28;20052;-44
2021/07/11 01:18:03;;;;;;;;;;;17.90;89.30;;;18.23;68.44;97629.28;5049165;28;20242;-43
2021/07/11 01:21:11;;;;;;;3.17;2.13;;;17.80;89.90;;;18.21;68.25;97636.75;5044567;28;19922;-44
2021/07/11 01:24:10;;;;;;;3.25;2.28;;;17.80;89.50;;;18.21;68.53;97635.94;5036130;28;20062;-43
2021/07/11 01:26:39;;;;;;;2.50;2.28;;;17.80;89.30;;;18.17;68.61;97645.47;5047982;28;20064;-44
2021/07/11 01:29:09;;;;;;;2.75;2.17;;;17.70;89.50;;;18.16;68.46;97643.81;5029432;28;20362;-44
2021/07/11 01:31:38;;;;;;;3.97;2.40;;;17.80;89.30;;;18.15;68.77;97637.59;5046733;28;20044;-44
2021/07/11 01:34:06;;;;;;;2.60;2.13;;;17.80;89.10;;;18.15;68.45;97644.88;5034173;28;20057;-44
2021/07/11 01:36:35;;;;;;;3.20;2.28;;;17.80;88.90;;;18.08;68.39;97645.69;5049787;28;20061;-43
2021/07/11 01:39:07;;;;;;;3.80;2.33;;;17.70;89.00;;;18.05;68.50;97646.13;5050804;28;20064;-43
2021/07/11 01:41:43;;;;;;;17.17;3.10;;;17.70;89.00;;;18.03;68.60;97650.88;5035255;28;20060;-43
2021/07/11 01:44:13;;;;;;;2.97;1.80;;;17.70;88.90;;;18.00;68.51;97645.06;5052365;28;20059;-44
2021/07/11 01:46:44;;;;;;;2.10;1.90;;;17.60;88.90;;;18.00;68.56;97645.91;5034108;28;20049;-44
2021/07/11 01:49:15;;;;;;;2.97;2.45;;;17.70;88.90;;;17.98;68.42;97645.28;5034010;28;20046;-44
2021/07/11 01:51:50;;;;;;;3.33;2.20;;;17.70;88.60;;;18.00;68.40;97650.47;5050421;28;20056;-45
2021/07/11 01:54:20;;;;;;;3.35;2.08;;;17.70;88.60;;;18.02;68.37;97648.41;5049603;28;20052;-43
2021/07/11 01:56:49;;;;;;;3.85;2.42;;;17.70;88.20;;;18.04;68.33;97649.00;5050618;28;20338;-44
2021/07/11 01:59:22;;;;;;;4.30;2.17;;;17.80;88.10;;;18.05;68.16;97656.88;5065369;28;20060;-44
2021/07/11 02:02:23;;;;;;;2.95;2.00;;;17.70;88.10;;;18.04;68.20;97654.41;5045947;28;20413;-44
2021/07/11 02:05:10;;;;;;;4.83;2.27;;;17.70;88.10;;;18.04;68.33;97638.22;5051297;28;20079;-44
2021/07/11 02:07:39;;;;;;;2.42;1.95;;;17.70;88.30;;;18.04;68.10;97649.81;5051810;28;20058;-45
2021/07/11 02:10:12;;;;;;;3.20;1.90;;;17.70;88.20;;;18.03;68.13;97650.03;5050607;28;20056;-44
2021/07/11 02:13:01;;;;;;;3.95;2.33;;;17.70;88.10;;;18.00;68.03;97645.91;5033486;28;20235;-44
2021/07/11 02:15:33;;;;;;;3.47;2.10;;;17.70;88.10;;;18.00;68.08;97643.22;5050482;28;20051;-45
2021/07/11 02:18:06;;;;;;;3.95;2.38;;;17.70;87.70;;;18.00;67.94;97643.22;5049992;28;20246;-45
2021/07/11 02:20:45;;;;;;;3.22;2.22;;;17.80;87.40;;;17.99;67.96;97648.78;5066273;28;20040;-44
2021/07/11 02:23:18;;;;;;;2.78;2.20;;;17.70;87.50;;;18.02;67.92;97645.69;5049600;28;20066;-44
2021/07/11 02:25:50;;;;;;;2.20;1.90;;;17.70;87.70;;;18.02;67.92;97638.44;5067860;28;20058;-44
2021/07/11 02:28:23;;;;;;;4.05;2.55;;;17.70;87.80;;;18.02;67.79;97638.44;5049555;28;20056;-44
2021/07/11 02:30:53;;;;;;;2.83;2.17;;;17.70;87.70;;;18.04;67.79;97633.66;5067164;28;20066;-45
2021/07/11 02:36:28;;;;;;;2.58;2.10;;;17.70;87.70;;;18.00;67.89;97635.13;5027767;28;20059;-44
2021/07/11 02:39:12;;;;;;;3.72;2.75;;;17.60;87.80;;;18.00;67.68;97631.63;5032145;28;20048;-44
2021/07/11 02:42:10;;;;;;;2.28;2.00;;;17.60;87.80;;;17.97;67.80;97632.88;5049847;28;20057;-44
2021/07/11 02:44:47;;;;;;;3.53;2.03;;;17.60;88.00;;;17.97;67.99;97638.25;5067115;28;20398;-44
2021/07/11 02:47:24;;;;;;;3.92;2.30;;;17.60;87.90;;;17.95;67.80;97643.03;5050398;28;20060;-44
2021/07/11 02:50:00;;;;;;;4.65;2.28;;;17.60;88.00;;;17.92;68.03;97639.91;5049197;28;20052;-46
2021/07/11 02:52:35;;;;;;;5.07;2.60;;;17.50;88.20;;;17.89;67.95;97641.13;5033784;28;20060;-44
2021/07/11 02:55:16;;;;;;;3.72;2.15;;;17.50;88.10;;;17.89;68.02;97643.81;5049921;28;20052;-46
2021/07/11 02:57:51;;;;;;;3.25;1.90;;;17.50;88.10;;;17.90;67.87;97640.13;5048892;28;20057;-46
2021/07/11 03:00:20;;;;;;;3.35;2.25;;;17.50;88.10;;;17.89;67.80;97641.13;5066235;28;20052;-44
2021/07/11 03:02:49;;;;;;;3.78;2.35;;;17.50;88.10;;;17.89;68.02;97647.38;5067369;28;20062;-44
2021/07/11 03:05:24;;;;;;;3.00;2.33;;;17.60;88.00;;;17.89;67.99;97649.22;5034473;28;20056;-46
2021/07/11 03:07:56;;;;;;;3.72;2.40;;;17.60;88.10;;;17.90;68.06;97648.19;5048630;28;20052;-44
2021/07/11 03:10:26;;;;;;;2.83;2.45;;;17.60;88.20;;;17.92;67.90;97639.91;5047367;28;20050;-44
2021/07/11 03:13:01;;;;;;;2.88;2.05;;;17.60;88.10;;;17.92;67.97;97639.91;5049384;28;20368;-44
2021/07/11 03:15:33;;;;;;;4.13;2.63;;;17.60;88.20;;;17.90;68.09;97629.34;5066742;28;20043;-45
2021/07/11 03:18:03;;;;;;;2.80;2.35;;;17.60;88.00;;;17.91;68.05;97630.97;5048647;28;20042;-45
2021/07/11 03:20:34;;;;;;;2.42;2.20;;;17.60;88.00;;;17.89;67.95;97633.06;5048290;28;20346;-44
2021/07/11 03:23:04;;;;;;;2.67;2.17;;;17.50;88.10;;;17.88;67.98;97637.63;5032387;28;20070;-44
2021/07/11 03:25:33;;;;;;;2.58;1.95;;;17.60;88.10;;;17.89;68.06;97636.59;5048950;28;20059;-44
2021/07/11 03:28:06;;;;;;;5.45;2.47;;;17.60;88.00;;;17.88;67.99;97640.31;5049293;28;20056;-48
2021/07/11 03:30:48;;;;;;;3.13;2.08;;;17.60;87.90;;;17.86;68.09;97638.88;5064875;28;20055;-45
2021/07/11 03:33:19;;;;;;;2.78;2.33;;;17.60;87.80;;;17.84;68.27;97638.25;5050573;28;20357;-45
2021/07/11 03:35:57;;;;;;;2.78;2.28;;;17.50;88.00;;;17.80;68.19;97642.38;5048051;28;20050;-44
2021/07/11 03:38:41;;;;;;;5.93;2.75;;;17.50;88.20;;;17.73;68.14;97636.97;5065946;28;20082;-48
2021/07/11 03:41:19;;;;;;;2.70;2.30;;;17.40;88.40;;;17.74;68.20;97633.25;5047226;28;20452;-45
2021/07/11 03:43:56;;;;;;;3.83;2.20;;;17.40;88.20;;;17.74;68.16;97640.47;5033672;28;20060;-45
2021/07/11 03:46:36;;;;;;;4.53;3.05;;;17.40;88.10;;;17.77;68.19;97650.84;5066508;28;20052;-45
2021/07/11 03:49:09;;;;;;;5.57;2.17;;;17.50;88.20;;;17.76;68.07;97649.19;5049173;28;20052;-46
2021/07/11 03:51:40;;;;;;;3.60;2.00;;;17.40;87.80;;;17.76;68.13;97651.88;5048998;28;20356;-44
2021/07/11 03:54:10;;;;;;;3.28;2.03;;;17.50;87.70;;;17.76;67.90;97649.19;5066212;28;20050;-46
2021/07/11 03:56:39;;;;;;;3.40;2.20;;;17.40;87.50;;;17.77;68.06;97656.25;5047151;28;20052;-45
2021/07/11 03:59:10;;;;;;;3.03;2.30;;;17.50;87.70;;;17.77;68.17;97648.97;5065572;28;20049;-45
2021/07/11 04:01:40;;;;;;;3.25;2.20;;;17.50;87.70;;;17.77;68.11;97654.38;5031471;28;20048;-44
2021/07/11 04:04:16;;;;;;;4.00;2.20;;;17.50;87.50;;;17.76;67.95;97654.56;5049687;28;20060;-45
2021/07/11 04:06:48;;;;;;;6.60;2.50;;;17.40;87.60;;;17.74;68.06;97660.19;5066269;28;20063;-45
2021/07/11 04:09:22;;;;;;;4.13;2.20;;;17.40;87.80;;;17.75;67.96;97659.13;5064694;28;20053;-44
2021/07/11 04:11:50;;;;;;;3.60;2.53;;;17.40;87.70;;;17.76;68.01;97665.34;5030137;28;20224;-44
2021/07/11 04:14:20;;;;;;;3.28;2.08;;;17.40;87.80;;;17.76;67.80;97663.50;5064765;28;20062;-44
2021/07/11 04:16:56;;;;;;;5.75;2.70;;;17.40;87.50;;;17.75;67.82;97669.06;5063822;28;20056;-46
2021/07/11 04:19:30;;;;;;;4.57;2.78;;;17.40;87.70;;;17.74;67.83;97667.41;5048014;28;20358;-45
2021/07/11 04:22:01;;;;;;;4.18;2.40;;;17.50;88.00;;;17.73;67.70;97671.16;5064232;28;20061;-46
2021/07/11 04:24:29;;;;;;;4.55;2.33;;;17.40;87.60;;;17.71;67.94;97676.72;5047528;28;20051;-47
2021/07/11 04:26:57;;;;;;;2.55;2.20;;;17.40;88.70;;;17.71;68.13;97672.16;5064965;28;20280;-44
2021/07/11 04:29:28;;;;;;;3.90;2.10;;;17.40;87.90;;;17.72;68.10;97670.34;5064948;28;20063;-48
2021/07/11 04:31:57;;;;;;;3.53;2.80;;;17.40;87.80;;;17.73;68.21;97671.97;5005744;23;20057;-36
2021/07/11 04:34:27;;;;;;;5.38;2.95;;;17.40;87.70;;;17.75;68.08;97667.22;4970280;28;20051;-36
2021/07/11 04:36:58;;;;;;;3.88;2.40;;;17.50;87.70;;;17.77;68.15;97665.13;4961505;28;20047;-36
2021/07/11 04:39:27;;;;;;;5.15;2.65;;;17.50;87.60;;;17.79;68.07;97673.84;4964348;28;20363;-36
2021/07/11 04:41:56;;;;;;;2.90;2.35;;;17.50;87.60;;;17.80;68.07;97680.88;4979386;28;20058;-36
2021/07/11 04:44:25;;;;;;;4.28;3.10;;;17.60;87.60;;;17.81;68.09;97681.72;4964962;28;20084;-36
2021/07/11 04:46:53;;;;;;;4.55;2.40;;;17.50;87.60;;;17.82;68.01;97684.22;4963990;28;20088;-36
2021/07/11 04:49:22;;;;;;;3.25;2.53;;;17.50;87.70;;;17.84;68.01;97673.25;4964278;28;20062;-36
2021/07/11 04:51:53;;;;;;;3.25;2.35;;;17.50;87.70;;;17.85;67.99;97682.97;4976873;28;20051;-36
2021/07/11 04:54:21;;;;;;;5.03;2.58;;;17.60;87.70;;;17.86;68.13;97681.97;4963803;28;20331;-37
2021/07/11 04:56:50;;;;;;;3.42;2.60;;;17.60;87.60;;;17.88;68.07;97680.72;4964152;28;20064;-36
2021/07/11 04:59:18;;;;;;;4.40;2.38;;;17.60;87.50;;;17.90;68.04;97688.59;4963528;28;20058;-36
2021/07/11 05:01:46;;;;;;;4.18;2.70;;;17.60;87.30;;;17.92;67.95;97693.78;4979082;28;20058;-37
2021/07/11 05:04:14;;;;;;;3.65;2.85;;;17.70;87.20;;;17.90;67.82;97685.91;4962481;28;20058;-37
2021/07/11 05:06:42;;;;;;;4.88;2.95;;;17.60;87.20;;;17.88;67.85;97686.09;4964590;28;20051;-37
2021/07/11 05:09:10;;;;;;;6.82;3.05;;;17.60;87.50;;;17.86;68.01;97687.34;4979535;28;20090;-37
2021/07/11 05:11:39;;;;;;;4.05;2.90;;;17.60;87.40;;;17.86;67.93;97690.88;4963917;28;20061;-37
2021/07/11 05:14:06;;;;;;;8.13;2.97;;;17.60;87.10;;;17.83;67.82;97687.72;4978345;28;20540;-37
2021/07/11 05:16:35;;;;;;;4.40;2.33;;;17.50;87.50;;;17.83;67.97;97690.41;4963201;28;20065;-37
2021/07/11 05:19:03;;;;;;;3.78;3.30;;;17.50;87.70;;;17.79;68.05;97703.44;4963488;28;20061;-37
2021/07/11 05:21:31;;;;;;;5.00;2.90;;;17.50;87.40;;;17.69;68.07;97700.34;4962488;28;20069;-37
2021/07/11 05:23:59;;;;;;;3.70;2.67;;;17.30;87.90;;;17.68;68.04;97704.06;4964153;28;20065;-37
2021/07/11 05:26:27;;;;;;;4.32;2.58;;;17.30;87.70;;;17.70;68.32;97712.78;4964086;28;20069;-37
2021/07/11 05:28:55;;;;;;;3.17;2.88;;;17.40;88.00;;;17.66;68.15;97708.81;4963813;28;20356;-38
2021/07/11 05:31:23;;;;;;;3.83;2.60;;;17.30;88.20;;;17.60;68.28;97715.88;4972100;28;20073;-38
2021/07/11 05:33:51;;;;;;;3.80;2.97;;;17.30;88.00;;;17.64;68.21;97710.88;4982173;28;20055;-37
2021/07/11 05:36:19;;;;;;;3.88;3.00;;;17.30;88.20;;;17.69;68.21;97709.25;4984346;28;20182;-38
2021/07/11 05:38:48;;;;;;;5.18;3.05;;;17.40;88.00;;;17.73;68.24;97711.53;5047715;28;20050;-38
2021/07/11 05:41:16;;;;;;;3.45;2.60;;;17.50;87.70;;;17.73;68.25;97698.06;5064492;28;20080;-37
2021/07/11 05:43:44;;;;;;;3.67;2.92;;;17.50;87.80;;;17.77;68.52;97704.69;4982650;28;20065;-38
2021/07/11 05:46:11;;;;;;;3.92;2.83;;;17.50;88.00;;;17.84;68.64;97711.78;4981955;28;20085;-37
2021/07/11 05:48:39;;;;;;;5.35;2.67;;;17.70;88.30;;;17.91;68.66;97706.38;4981701;28;20054;-37
2021/07/11 05:51:07;;;;;;;7.13;3.35;;;17.80;88.00;;;17.96;68.38;97701.22;4981576;28;20367;-38
2021/07/11 05:53:35;;;;;;;4.43;2.88;;;17.90;87.50;;;17.93;67.86;97698.94;4983263;28;20066;-37
2021/07/11 05:56:04;;;;;;;4.18;3.35;;;17.80;86.00;;;17.86;68.40;97698.94;4982147;28;20259;-38
2021/07/11 05:58:31;;;;;;;3.60;2.92;;;17.70;87.00;;;17.91;68.21;97701.00;4982578;28;20064;-37
2021/07/11 06:00:59;;;;;;;4.03;2.95;;;17.70;87.20;;;17.82;67.94;97708.44;5047550;28;20124;-37
2021/07/11 06:03:27;;;;;;;4.68;3.00;;;17.60;86.30;;;17.87;68.05;97699.75;4983132;28;20050;-38
2021/07/11 06:05:55;;;;;;;4.32;2.80;;;17.70;87.00;;;17.92;68.07;97705.38;4981959;28;20058;-37
2021/07/11 06:08:23;;;;;;;5.28;2.83;;;17.80;86.70;;;17.95;68.10;97704.97;5065054;28;20072;-37
2021/07/11 06:10:53;;;;;;;4.97;3.13;;;17.90;86.60;;;18.01;67.98;97698.75;4980690;28;20061;-37
2021/07/11 06:13:22;;;;;;;3.95;3.10;;;18.00;86.40;;;18.09;67.95;97706.63;4981658;28;20669;-37
2021/07/11 06:15:51;;;;;;;5.60;2.80;;;18.00;85.90;;;18.09;67.82;97711.19;4981181;28;20046;-37
2021/07/11 06:18:19;;;;;;;3.92;2.95;;;18.10;85.90;;;18.12;67.65;97708.06;4983392;28;20360;-37
2021/07/11 06:20:47;;;;;;;3.88;2.67;;;18.10;85.90;;;18.18;67.61;97703.69;4987048;28;20058;-37
2021/07/11 06:23:15;;;;;;;4.57;2.60;;;18.10;85.50;;;18.21;67.24;97719.47;4985128;28;20058;-38
2021/07/11 06:25:43;;;;;;;3.88;2.75;;;18.20;85.00;;;18.06;67.11;97708.88;5051432;28;20224;-37
2021/07/11 06:28:11;;;;;;;4.43;3.53;;;18.00;84.60;;;18.10;67.24;97710.13;4985476;28;20050;-38
2021/07/11 06:30:39;;;;;;;6.80;3.10;;;18.00;85.00;;;18.07;67.15;97697.09;4986272;28;20062;-38
2021/07/11 06:33:07;;;;;;;4.50;2.70;;;18.00;85.20;;;18.07;67.07;97700.59;5052242;28;20054;-38
2021/07/11 06:35:35;;;;;;;5.00;2.60;;;18.00;84.90;;;18.05;66.71;97715.31;4984619;28;20047;-38
2021/07/11 06:38:03;;;;;;;6.03;2.75;;;18.00;83.70;;;18.03;66.63;97701.22;4985460;28;20063;-37
2021/07/11 06:40:31;;;;;;;4.05;3.08;;;17.90;84.40;;;17.94;66.89;97706.00;4986684;28;20084;-38
2021/07/11 06:42:59;;;;;;;5.63;2.78;;;17.90;84.50;;;17.69;67.10;97708.41;4985322;28;20266;-38
2021/07/11 06:45:27;;;;;;;5.47;2.95;;;17.60;84.90;;;17.63;67.11;97710.06;4985169;28;20229;-37
2021/07/11 06:47:55;;;;;;;3.22;2.47;;;17.50;84.50;;;17.58;67.68;97709.03;4986509;28;20062;-38
2021/07/11 06:50:23;;;;;;;3.17;2.42;;;17.50;85.30;;;17.61;67.81;97712.13;4984948;28;20355;-38
2021/07/11 06:52:51;;;;;;;5.20;2.85;;;17.50;86.00;;;17.73;67.59;97709.66;4986086;28;20072;-38
2021/07/11 06:55:19;;;;;;;3.85;3.33;;;17.70;85.70;;;17.65;67.55;97713.38;4985221;28;20344;-37
2021/07/11 06:57:47;;;;;;;3.65;3.20;;;17.70;84.70;;;17.67;67.86;97711.31;4984740;28;20042;-38
2021/07/11 07:00:16;;;;;;;7.15;3.05;;;17.60;85.50;;;17.75;67.84;97712.97;5052262;28;20054;-37
2021/07/11 07:02:44;;;;;;;6.30;3.22;;;17.70;85.80;;;17.81;67.47;97724.78;4984690;28;20058;-37
2021/07/11 07:05:12;;;;;;;5.07;2.70;;;17.90;84.80;;;17.89;67.30;97722.78;4985444;28;20058;-37
2021/07/11 07:07:40;;;;;;;4.28;2.80;;;18.00;83.70;;;17.86;67.15;97723.19;4985077;28;20062;-37
2021/07/11 07:10:13;;;;;;;5.03;3.58;;;17.90;84.10;;;17.77;66.02;97734.31;4983936;28;20264;-37
2021/07/11 07:12:43;;;;;;;4.13;2.85;;;17.80;82.30;;;17.79;66.76;97719.59;4983776;28;20064;-37
2021/07/11 07:15:12;;;;;;;3.47;2.30;;;17.80;84.50;;;17.87;66.46;97718.63;4986856;28;20057;-37
2021/07/11 07:17:43;;;;;;;4.32;2.70;;;17.90;83.00;;;17.89;66.54;97727.31;4982900;28;20080;-37
2021/07/11 07:20:12;;;;;;;3.95;2.95;;;17.90;83.30;;;17.90;66.59;97732.50;4984023;28;20414;-37
2021/07/11 07:22:41;;;;;;;3.65;2.10;;;18.00;83.30;;;17.86;66.28;97723.19;4984472;28;20240;-37
2021/07/11 07:25:14;;;;;;;2.50;2.20;;;17.80;82.60;;;17.79;66.00;97725.00;5051088;28;20050;-37
2021/07/11 07:27:45;;;;;;;5.10;2.88;;;17.90;82.10;;;17.97;66.27;97731.66;4984494;28;20062;-37
2021/07/11 07:30:21;;;;;;;3.35;2.67;;;18.00;82.40;;;17.97;65.75;97724.44;4985907;28;20054;-37
2021/07/11 07:32:49;;;;;;;3.40;2.63;;;18.10;81.30;;;18.16;65.80;97730.03;4984578;28;20051;-38
2021/07/11 07:35:20;;;;;;;3.15;2.60;;;18.30;81.20;;;18.12;64.94;97732.31;4984418;28;20233;-38
2021/07/11 07:37:49;;;;;;;2.35;2.10;;;18.30;79.80;;;18.33;65.10;97733.13;4984461;28;20076;-37
2021/07/11 07:40:20;;;;;;;3.28;2.30;;;18.50;80.80;;;18.32;64.62;97736.84;4984550;28;20621;-38
2021/07/11 07:42:49;;;;;;;3.75;2.03;;;18.50;79.90;;;18.28;64.20;97733.75;4982937;28;20050;-37
2021/07/11 07:45:18;;;;;;;2.63;2.42;;;18.50;79.10;;;18.35;64.36;97733.75;5049370;28;20076;-38
2021/07/11 07:47:46;;;;;;;4.40;2.67;;;18.50;80.10;;;18.38;64.41;97728.78;4984241;28;20054;-38
2021/07/11 07:50:15;;;;;;;3.63;2.33;;;18.60;79.30;;;18.32;63.90;97729.63;4982983;28;20046;-37
2021/07/11 07:52:43;;;;;;;3.05;2.25;;;18.50;78.50;;;18.40;63.96;97731.28;5050116;28;20366;-38
2021/07/11 07:55:11;;;;;;;3.03;2.10;;;18.50;79.60;;;18.56;64.04;97738.09;4983562;28;20336;-38
2021/07/11 07:57:40;;;;;;;2.92;2.47;;;18.70;79.50;;;18.60;63.89;97731.22;5034342;28;20139;-38
2021/07/11 08:00:11;;;;;;;2.42;2.00;;;18.90;78.70;;;18.70;63.21;97740.53;5046047;28;20057;-38
2021/07/11 08:02:40;;;;;;;2.65;1.90;;;18.90;76.30;;;18.89;63.46;97735.34;4982250;28;20038;-37
2021/07/11 08:05:09;;;;;;;2.55;2.10;;;19.20;78.30;;;18.94;62.78;97732.00;5047862;28;20050;-38
2021/07/11 08:07:37;;;;;;;2.20;1.88;;;19.20;75.70;;;18.99;62.10;97748.38;4982320;28;20080;-38
2021/07/11 08:10:08;;;;;;;2.65;1.65;;;19.20;76.00;;;18.87;62.03;97738.25;4982044;28;20208;-38
2021/07/11 08:12:35;;;;;;;2.83;1.83;;;19.00;76.70;;;18.97;61.82;97745.88;5047574;28;20038;-37
2021/07/11 08:15:05;;;;;;;2.55;2.00;;;19.10;76.00;;;18.93;61.34;97744.66;4983248;28;20535;-38
2021/07/11 08:17:34;;;;;;;3.13;2.03;;;19.00;75.60;;;18.93;61.13;97741.97;4983911;28;20060;-38
2021/07/11 08:20:05;;;;;;;2.55;2.03;;;19.10;74.50;;;18.98;60.46;97741.31;4982604;28;20060;-38
2021/07/11 08:22:33;;;;;;;3.55;2.30;;;19.10;73.60;;;18.95;61.67;97741.75;4982829;28;20359;-38
2021/07/11 08:25:01;;;;;;;2.20;1.80;;;19.20;76.10;;;19.07;61.85;97751.66;5050694;28;20064;-38
2021/07/11 08:27:30;;;;;;;2.53;1.85;;;19.30;76.20;;;19.07;60.98;97745.44;4985827;28;20263;-37
2021/07/11 08:29:57;;;;;;;2.33;1.98;;;19.30;74.70;;;19.11;60.74;97760.16;4983259;28;20050;-38
2021/07/11 08:32:25;;;;;;;2.70;2.00;;;19.30;74.40;;;19.14;60.53;97745.44;4983976;28;20116;-38
2021/07/11 08:34:53;;;;;;;5.10;2.22;;;19.30;74.70;;;19.20;60.29;97750.78;4983025;28;20054;-38
2021/07/11 08:37:22;;;;;;;4.35;1.95;;;19.40;74.30;;;19.35;60.90;97746.97;4983366;28;20058;-38
2021/07/11 08:39:50;;;;;;;4.72;1.83;;;19.60;75.10;;;19.30;59.17;97754.91;4984026;28;20340;-38
2021/07/11 08:42:20;;;;;;;2.70;2.10;;;19.50;71.70;;;19.29;59.94;97759.50;4980851;28;20057;-38
2021/07/11 08:44:48;;;;;;;2.10;1.88;;;19.50;74.00;;;19.23;59.40;97760.31;4983763;28;20050;-37
2021/07/11 08:47:16;;;;;;;3.15;2.42;;;19.40;72.70;;;19.38;59.24;97754.66;4982026;28;20239;-38
2021/07/11 08:49:44;;;;;;;3.63;2.20;;;19.60;73.00;;;19.42;59.39;97761.28;4983269;28;20050;-38
2021/07/11 08:52:12;;;;;;;2.40;1.80;;;19.60;72.80;;;19.27;57.58;97765.09;4982800;28;20062;-37
2021/07/11 08:54:40;;;;;;;2.20;1.67;;;19.60;69.30;;;19.43;57.82;97763.78;4982759;28;20054;-37
2021/07/11 08:57:11;;;;;;;3.35;1.60;;;19.60;71.00;;;19.29;57.27;97756.78;4982371;28;20064;-38
2021/07/11 08:59:41;;;;;;;3.75;2.30;;;19.40;70.20;;;19.31;57.16;97772.75;4983898;28;20239;-38
2021/07/11 09:02:11;;;;;;;3.42;2.05;;;19.50;69.60;;;19.35;57.27;97760.47;4982269;28;20076;-38
2021/07/11 09:04:47;;;;;;;2.63;2.38;;;19.50;69.50;;;19.27;57.33;97764.28;4983282;28;20532;-37
2021/07/11 09:07:18;;;;;;;2.60;1.90;;;19.50;70.40;;;19.39;58.34;97762.53;4983536;28;20088;-38
2021/07/11 09:10:00;;;;;;;2.92;2.17;;;19.60;71.80;;;19.36;57.69;97767.53;4983375;28;20044;-37
2021/07/11 09:12:28;;;;;;;3.03;2.40;;;19.70;70.80;;;19.34;57.61;97765.06;4982296;28;20051;-37
2021/07/11 09:15:00;;;;;;;3.88;2.08;;;19.60;69.80;;;19.36;57.60;97768.38;4984740;28;20046;-37
2021/07/11 09:17:33;;;;;;;3.05;2.15;;;19.60;69.90;;;19.48;58.22;97772.06;4982942;28;20064;-37
2021/07/11 09:20:02;;;;;;;3.88;2.47;;;19.70;71.90;;;19.47;57.66;97773.09;4982827;28;20050;-37
2021/07/11 09:22:30;;;;;;;2.97;1.92;;;19.70;70.40;;;19.26;57.64;97776.09;4982243;28;20066;-37
2021/07/11 09:25:01;;;;;;;3.05;1.90;;;19.50;70.50;;;19.43;57.36;97779.16;5047796;28;20054;-37
2021/07/11 09:27:33;;;;;;;4.13;2.33;;;19.60;70.80;;;19.51;57.17;97773.50;4982932;28;20377;-38
2021/07/11 09:30:09;;;;;;;2.53;2.08;;;19.70;70.00;;;19.57;56.87;97772.63;4983521;28;20062;-37
2021/07/11 09:32:41;;;;;;;2.88;2.15;;;19.80;69.10;;;19.59;57.37;97765.13;4981683;28;20042;-37
2021/07/11 09:35:30;;;;;;;4.25;2.28;;;19.80;70.30;;;19.64;56.64;97764.50;4982344;28;20052;-37
2021/07/11 09:37:58;;;;;;;3.97;2.53;;;19.80;69.50;;;19.79;56.96;97766.94;4982191;28;20053;-37
2021/07/11 09:40:27;;;;;;;4.75;2.28;;;20.00;70.00;;;19.89;57.48;97769.16;4981895;28;20054;-37
2021/07/11 09:42:57;;;;;;;3.35;2.22;;;20.20;70.50;;;19.90;57.35;97771.63;4981505;28;20260;-37
2021/07/11 09:45:30;;;;;;;2.33;1.92;;;20.20;69.80;;;19.86;54.89;97773.94;4980835;28;20349;-37
2021/07/11 09:48:10;;;;;;;3.35;1.88;;;20.20;66.10;;;19.88;54.59;97773.72;4983486;28;20061;-37
2021/07/11 09:50:38;;;;;;;3.97;2.00;;;20.10;65.80;;;19.92;55.02;97766.03;4982401;28;20064;-37
2021/07/11 09:53:07;;;;;;;5.22;2.85;;;20.10;67.20;;;19.98;55.32;97767.84;4983061;28;20058;-37
2021/07/11 09:55:36;;;;;;;2.60;1.98;;;20.20;66.80;;;20.00;54.95;97761.16;4986206;28;20080;-38
2021/07/11 09:58:08;;;;;;;2.58;2.10;;;20.30;66.70;;;20.12;55.83;97761.28;4985315;28;20042;-38
2021/07/11 10:00:42;;;;;;;2.55;2.30;;;20.40;68.50;;;20.17;56.39;97760.66;5050852;28;20043;-37
2021/07/11 10:03:15;;;;;;;2.88;2.20;;;20.40;68.70;;;20.10;55.69;97765.25;5051339;28;20053;-37
2021/07/11 10:05:44;;;;;;;3.50;2.20;;;20.40;67.50;;;20.23;55.73;97757.88;5051384;28;20378;-37
2021/07/11 10:08:12;;;;;;;4.07;2.65;;;20.40;68.90;;;20.31;55.88;97766.78;4985725;28;20054;-37
2021/07/11 10:10:42;;;;;;;4.03;2.88;;;20.50;68.40;;;20.39;55.81;97767.31;4984204;28;20058;-37
2021/07/11 10:13:10;;;;;;;5.13;2.70;;;20.60;68.20;;;20.35;55.18;97755.28;4985696;28;20046;-37
2021/07/11 10:15:39;;;;;;;3.00;2.20;;;20.70;67.00;;;20.36;55.01;97758.84;4984822;28;20053;-37
2021/07/11 10:18:13;;;;;;;3.05;2.20;;;20.60;67.00;;;20.46;55.24;97767.25;4982503;28;20340;-37
2021/07/11 10:20:49;;;;;;;2.90;2.30;;;20.60;68.40;;;20.57;55.83;97768.41;4983903;28;20050;-37
2021/07/11 10:23:43;;;;;;;2.38;1.90;;;20.90;68.70;;;20.61;55.67;97756.97;4985158;28;20259;-37
2021/07/11 10:26:16;;;;;;;2.75;1.90;;;20.90;67.00;;;20.62;53.97;97755.91;5047154;28;20062;-37
2021/07/11 10:28:48;;;;;;;4.22;2.17;;;21.00;65.50;;;20.65;54.17;97768.16;4985896;28;20065;-37
2021/07/11 10:31:24;;;;;;;3.63;2.08;;;20.90;66.20;;;20.69;53.35;97769.38;4985131;28;20050;-38
2021/07/11 10:33:57;;;;;;;4.07;2.17;;;21.00;64.70;;;20.63;53.31;97768.38;4984183;28;20049;-37
2021/07/11 10:36:42;;;;;;;2.92;2.55;;;20.90;65.50;;;20.68;52.59;97762.28;4986615;28;20060;-37
2021/07/11 10:39:12;;;;;;;2.88;2.42;;;21.00;64.90;;;20.80;54.16;97763.22;4985110;28;20046;-37
2021/07/11 10:41:52;;;;;;;3.30;2.22;;;21.10;66.10;;;20.88;54.32;97767.53;4985927;28;20051;-37